sensor_id;sensor_type;location;lat;lon;timestamp;pressure;altitude;pressure_sealevel;temperature;humidity
65832;BME280;52593;42.648;23.332;2023-03-07T00:00:34;93754.03;;;5.89;67.39
65832;BME280;52593;42.648;23.332;2023-03-07T00:02:59;93761.16;;;5.97;67.86
65832;BME280;52593;42.648;23.332;2023-03-07T00:05:25;93762.00;;;5.97;68.00
65832;BME280;52593;42.648;23.332;2023-03-07T00:07:50;93764.66;;;5.97;67.60
65832;BME280;52593;42.648;23.332;2023-03-07T00:10:15;93753.69;;;5.92;67.52
65832;BME280;52593;42.648;23.332;2023-03-07T00:12:41;93762.97;;;5.96;67.54
65832;BME280;52593;42.648;23.332;2023-03-07T00:15:07;93764.81;;;5.96;67.93
65832;BME280;52593;42.648;23.332;2023-03-07T00:17:36;93760.00;;;5.99;67.51
65832;BME280;52593;42.648;23.332;2023-03-07T00:20:03;93737.69;;;6.09;67.05
65832;BME280;52593;42.648;23.332;2023-03-07T00:22:34;93750.69;;;6.03;67.42
65832;BME280;52593;42.648;23.332;2023-03-07T00:25:00;93740.41;;;6.00;67.20
65832;BME280;52593;42.648;23.332;2023-03-07T00:27:26;93727.13;;;6.00;67.23
65832;BME280;52593;42.648;23.332;2023-03-07T00:29:51;93735.03;;;6.09;66.23
65832;BME280;52593;42.648;23.332;2023-03-07T00:32:16;93731.56;;;6.08;66.61
65832;BME280;52593;42.648;23.332;2023-03-07T00:34:42;93722.41;;;6.11;66.32
65832;BME280;52593;42.648;23.332;2023-03-07T00:37:07;93719.38;;;6.14;65.73
65832;BME280;52593;42.648;23.332;2023-03-07T00:39:33;93716.38;;;6.17;65.43
65832;BME280;52593;42.648;23.332;2023-03-07T00:41:58;93745.59;;;6.17;65.96
65832;BME280;52593;42.648;23.332;2023-03-07T00:44:24;93737.56;;;6.02;66.61
65832;BME280;52593;42.648;23.332;2023-03-07T00:46:51;93726.94;;;6.02;66.22
65832;BME280;52593;42.648;23.332;2023-03-07T00:49:16;93730.53;;;6.09;66.01
65832;BME280;52593;42.648;23.332;2023-03-07T00:51:42;93726.19;;;6.16;66.06
65832;BME280;52593;42.648;23.332;2023-03-07T00:54:07;93726.44;;;6.06;66.51
65832;BME280;52593;42.648;23.332;2023-03-07T00:56:33;93726.94;;;6.02;66.80
65832;BME280;52593;42.648;23.332;2023-03-07T00:58:58;93729.44;;;5.95;67.36
65832;BME280;52593;42.648;23.332;2023-03-07T01:01:24;93734.03;;;6.10;66.79
65832;BME280;52593;42.648;23.332;2023-03-07T01:03:50;93717.25;;;6.09;66.46
65832;BME280;52593;42.648;23.332;2023-03-07T01:06:23;93710.03;;;5.95;66.37
65832;BME280;52593;42.648;23.332;2023-03-07T01:08:48;93713.38;;;5.88;66.58
65832;BME280;52593;42.648;23.332;2023-03-07T01:11:14;93713.31;;;5.74;67.85
65832;BME280;52593;42.648;23.332;2023-03-07T01:13:40;93713.31;;;5.74;68.02
65832;BME280;52593;42.648;23.332;2023-03-07T01:16:10;93714.28;;;5.72;68.57
65832;BME280;52593;42.648;23.332;2023-03-07T01:18:36;93717.63;;;5.75;68.78
65832;BME280;52593;42.648;23.332;2023-03-07T01:21:10;93714.28;;;5.72;68.59
65832;BME280;52593;42.648;23.332;2023-03-07T01:23:36;93718.31;;;5.68;68.15
65832;BME280;52593;42.648;23.332;2023-03-07T01:26:01;93713.34;;;5.65;68.77
65832;BME280;52593;42.648;23.332;2023-03-07T01:28:27;93702.41;;;5.60;68.60
65832;BME280;52593;42.648;23.332;2023-03-07T01:30:56;93693.72;;;5.75;68.41
65832;BME280;52593;42.648;23.332;2023-03-07T01:33:22;93690.91;;;5.76;67.98
65832;BME280;52593;42.648;23.332;2023-03-07T01:35:47;93696.97;;;5.85;68.15
65832;BME280;52593;42.648;23.332;2023-03-07T01:38:13;93687.47;;;5.67;67.79
65832;BME280;52593;42.648;23.332;2023-03-07T01:40:38;93685.50;;;5.61;67.70
65832;BME280;52593;42.648;23.332;2023-03-07T01:43:24;93676.84;;;5.67;68.29
65832;BME280;52593;42.648;23.332;2023-03-07T01:48:16;93699.25;;;5.65;67.18
65832;BME280;52593;42.648;23.332;2023-03-07T01:50:41;93693.91;;;5.73;67.74
65832;BME280;52593;42.648;23.332;2023-03-07T01:53:07;93676.66;;;5.69;67.39
65832;BME280;52593;42.648;23.332;2023-03-07T01:55:34;93686.41;;;5.77;67.47
65832;BME280;52593;42.648;23.332;2023-03-07T01:58:11;93696.22;;;5.76;66.64
65832;BME280;52593;42.648;23.332;2023-03-07T02:00:38;93698.34;;;5.81;67.15
65832;BME280;52593;42.648;23.332;2023-03-07T02:03:19;93683.69;;;5.85;66.35
65832;BME280;52593;42.648;23.332;2023-03-07T02:05:49;93681.34;;;5.67;67.41
65832;BME280;52593;42.648;23.332;2023-03-07T02:08:19;93693.75;;;5.66;66.96
65832;BME280;52593;42.648;23.332;2023-03-07T02:10:46;93681.34;;;5.59;67.33
65832;BME280;52593;42.648;23.332;2023-03-07T02:13:12;93695.88;;;5.71;67.04
65832;BME280;52593;42.648;23.332;2023-03-07T02:15:38;93698.53;;;5.71;66.72
65832;BME280;52593;42.648;23.332;2023-03-07T02:18:04;93701.03;;;5.72;66.89
65832;BME280;52593;42.648;23.332;2023-03-07T02:26:19;93684.44;;;5.70;66.42
65832;BME280;52593;42.648;23.332;2023-03-07T02:28:47;93685.44;;;5.69;66.59
65832;BME280;52593;42.648;23.332;2023-03-07T02:31:13;93681.50;;;5.65;66.73
65832;BME280;52593;42.648;23.332;2023-03-07T02:33:39;93671.31;;;5.46;67.34
65832;BME280;52593;42.648;23.332;2023-03-07T02:36:08;93695.66;;;5.58;67.49
65832;BME280;52593;42.648;23.332;2023-03-07T02:38:37;93693.22;;;5.71;66.90
65832;BME280;52593;42.648;23.332;2023-03-07T02:41:05;93680.53;;;5.58;67.38
65832;BME280;52593;42.648;23.332;2023-03-07T02:43:31;93698.47;;;5.56;68.12
65832;BME280;52593;42.648;23.332;2023-03-07T02:45:57;93699.47;;;5.55;67.95
65832;BME280;52593;42.648;23.332;2023-03-07T02:48:22;93698.66;;;5.54;68.36
65832;BME280;52593;42.648;23.332;2023-03-07T02:50:48;93697.47;;;5.57;68.24
65832;BME280;52593;42.648;23.332;2023-03-07T02:53:13;93687.19;;;5.54;68.67
65832;BME280;52593;42.648;23.332;2023-03-07T02:55:39;93685.22;;;5.56;68.51
65832;BME280;52593;42.648;23.332;2023-03-07T02:58:05;93688.69;;;5.57;68.52
65832;BME280;52593;42.648;23.332;2023-03-07T03:00:30;93696.28;;;5.60;68.56
65832;BME280;52593;42.648;23.332;2023-03-07T03:02:56;93697.66;;;5.79;67.76
65832;BME280;52593;42.648;23.332;2023-03-07T03:05:21;93676.03;;;5.67;67.58
65832;BME280;52593;42.648;23.332;2023-03-07T03:07:47;93705.75;;;5.62;68.59
65832;BME280;52593;42.648;23.332;2023-03-07T03:10:13;93698.31;;;5.58;68.42
65832;BME280;52593;42.648;23.332;2023-03-07T03:12:38;93687.47;;;5.67;68.16
65832;BME280;52593;42.648;23.332;2023-03-07T03:15:04;93674.88;;;5.61;68.43
65832;BME280;52593;42.648;23.332;2023-03-07T03:17:30;93690.53;;;5.56;68.71
65832;BME280;52593;42.648;23.332;2023-03-07T03:19:55;93683.84;;;5.60;68.44
65832;BME280;52593;42.648;23.332;2023-03-07T03:22:20;93686.28;;;5.70;68.05
65832;BME280;52593;42.648;23.332;2023-03-07T03:24:46;93679.44;;;5.76;67.68
65832;BME280;52593;42.648;23.332;2023-03-07T03:27:11;93677.31;;;5.71;68.09
65832;BME280;52593;42.648;23.332;2023-03-07T03:29:37;93675.50;;;5.71;68.82
65832;BME280;52593;42.648;23.332;2023-03-07T03:32:03;93670.72;;;5.67;68.69
65832;BME280;52593;42.648;23.332;2023-03-07T03:34:28;93671.28;;;5.77;68.20
65832;BME280;52593;42.648;23.332;2023-03-07T03:36:54;93664.28;;;5.84;67.19
65832;BME280;52593;42.648;23.332;2023-03-07T03:39:19;93673.06;;;5.85;68.07
65832;BME280;52593;42.648;23.332;2023-03-07T03:41:45;93677.91;;;5.81;67.86
65832;BME280;52593;42.648;23.332;2023-03-07T03:44:10;93688.19;;;5.84;67.84
65832;BME280;52593;42.648;23.332;2023-03-07T03:46:36;93696.44;;;5.89;67.47
65832;BME280;52593;42.648;23.332;2023-03-07T03:49:01;93699.97;;;5.82;68.66
65832;BME280;52593;42.648;23.332;2023-03-07T03:51:28;93698.38;;;5.72;69.41
65832;BME280;52593;42.648;23.332;2023-03-07T03:53:54;93695.97;;;5.86;68.42
65832;BME280;52593;42.648;23.332;2023-03-07T03:56:23;93694.72;;;5.74;68.77
65832;BME280;52593;42.648;23.332;2023-03-07T03:58:53;93704.19;;;5.68;68.66
65832;BME280;52593;42.648;23.332;2023-03-07T04:01:21;93701.72;;;5.66;69.72
65832;BME280;52593;42.648;23.332;2023-03-07T04:03:49;93700.03;;;5.74;68.96
65832;BME280;52593;42.648;23.332;2023-03-07T04:06:20;93687.75;;;5.72;68.28
65832;BME280;52593;42.648;23.332;2023-03-07T04:08:46;93691.53;;;5.78;67.97
65832;BME280;52593;42.648;23.332;2023-03-07T04:11:11;93689.34;;;5.82;68.22
65832;BME280;52593;42.648;23.332;2023-03-07T04:13:37;93691.81;;;5.83;68.27
65832;BME280;52593;42.648;23.332;2023-03-07T04:16:03;93683.75;;;5.77;68.11
65832;BME280;52593;42.648;23.332;2023-03-07T04:18:28;93691.31;;;5.88;67.48
65832;BME280;52593;42.648;23.332;2023-03-07T04:20:54;93676.75;;;5.84;67.39
65832;BME280;52593;42.648;23.332;2023-03-07T04:23:21;93687.38;;;5.84;67.32
65832;BME280;52593;42.648;23.332;2023-03-07T04:25:54;93699.59;;;5.93;67.34
65832;BME280;52593;42.648;23.332;2023-03-07T04:28:20;93689.97;;;5.92;67.42
65832;BME280;52593;42.648;23.332;2023-03-07T04:30:46;93696.56;;;5.96;67.41
65832;BME280;52593;42.648;23.332;2023-03-07T04:33:14;93681.38;;;5.82;67.55
65832;BME280;52593;42.648;23.332;2023-03-07T04:35:39;93699.16;;;5.81;68.14
65832;BME280;52593;42.648;23.332;2023-03-07T04:38:05;93716.75;;;5.82;68.15
65832;BME280;52593;42.648;23.332;2023-03-07T04:40:31;93707.75;;;5.83;68.20
65832;BME280;52593;42.648;23.332;2023-03-07T04:42:57;93707.34;;;5.71;68.31
65832;BME280;52593;42.648;23.332;2023-03-07T04:45:22;93701.06;;;5.64;68.80
65832;BME280;52593;42.648;23.332;2023-03-07T04:47:48;93713.31;;;5.74;69.14
65832;BME280;52593;42.648;23.332;2023-03-07T04:50:14;93714.72;;;5.84;68.45
65832;BME280;52593;42.648;23.332;2023-03-07T04:52:40;93704.00;;;5.78;69.39
65832;BME280;52593;42.648;23.332;2023-03-07T04:55:05;93719.94;;;5.78;69.72
65832;BME280;52593;42.648;23.332;2023-03-07T04:57:31;93726.75;;;5.72;69.84
65832;BME280;52593;42.648;23.332;2023-03-07T04:59:56;93713.59;;;5.79;69.47
65832;BME280;52593;42.648;23.332;2023-03-07T05:02:22;93707.94;;;5.82;70.01
65832;BME280;52593;42.648;23.332;2023-03-07T05:04:47;93727.56;;;5.72;70.94
65832;BME280;52593;42.648;23.332;2023-03-07T05:07:13;93729.81;;;5.61;71.62
65832;BME280;52593;42.648;23.332;2023-03-07T05:09:38;93726.28;;;5.68;71.79
65832;BME280;52593;42.648;23.332;2023-03-07T05:12:03;93731.53;;;5.77;71.65
65832;BME280;52593;42.648;23.332;2023-03-07T05:14:29;93719.94;;;5.78;71.36
65832;BME280;52593;42.648;23.332;2023-03-07T05:16:54;93732.63;;;5.90;71.21
65832;BME280;52593;42.648;23.332;2023-03-07T05:19:20;93718.78;;;5.72;71.58
65832;BME280;52593;42.648;23.332;2023-03-07T05:21:46;93726.41;;;5.75;72.13
65832;BME280;52593;42.648;23.332;2023-03-07T05:24:13;93736.84;;;5.77;72.06
65832;BME280;52593;42.648;23.332;2023-03-07T05:26:39;93733.38;;;5.76;72.38
65832;BME280;52593;42.648;23.332;2023-03-07T05:29:05;93727.22;;;5.76;71.97
65832;BME280;52593;42.648;23.332;2023-03-07T05:31:30;93732.53;;;5.76;72.54
65832;BME280;52593;42.648;23.332;2023-03-07T05:33:56;93740.63;;;5.82;72.46
65832;BME280;52593;42.648;23.332;2023-03-07T05:36:21;93730.00;;;5.82;72.22
65832;BME280;52593;42.648;23.332;2023-03-07T05:38:46;93729.97;;;5.90;71.64
65832;BME280;52593;42.648;23.332;2023-03-07T05:41:12;93730.28;;;5.96;71.17
65832;BME280;52593;42.648;23.332;2023-03-07T05:43:37;93739.41;;;5.93;71.39
65832;BME280;52593;42.648;23.332;2023-03-07T05:46:03;93740.59;;;5.99;71.80
65832;BME280;52593;42.648;23.332;2023-03-07T05:48:28;93745.06;;;5.90;72.02
65832;BME280;52593;42.648;23.332;2023-03-07T05:50:57;93757.97;;;6.01;72.05
65832;BME280;52593;42.648;23.332;2023-03-07T05:53:23;93759.75;;;6.09;71.24
65832;BME280;52593;42.648;23.332;2023-03-07T05:55:49;93752.47;;;6.11;71.00
65832;BME280;52593;42.648;23.332;2023-03-07T05:58:14;93762.03;;;6.20;70.65
65832;BME280;52593;42.648;23.332;2023-03-07T06:00:40;93755.88;;;6.20;70.96
65832;BME280;52593;42.648;23.332;2023-03-07T06:03:05;93754.44;;;6.32;70.18
65832;BME280;52593;42.648;23.332;2023-03-07T06:05:30;93746.91;;;6.44;69.54
65832;BME280;52593;42.648;23.332;2023-03-07T06:07:56;93745.56;;;6.25;70.16
65832;BME280;52593;42.648;23.332;2023-03-07T06:10:21;93760.13;;;6.29;70.15
65832;BME280;52593;42.648;23.332;2023-03-07T06:12:50;93758.88;;;6.40;70.52
65832;BME280;52593;42.648;23.332;2023-03-07T06:15:16;93761.13;;;6.51;69.87
65832;BME280;52593;42.648;23.332;2023-03-07T06:17:42;93748.84;;;6.50;69.50
65832;BME280;52593;42.648;23.332;2023-03-07T06:20:08;93745.78;;;6.62;69.52
65832;BME280;52593;42.648;23.332;2023-03-07T06:22:34;93753.50;;;6.71;68.88
65832;BME280;52593;42.648;23.332;2023-03-07T06:25:03;93765.00;;;6.87;69.01
65832;BME280;52593;42.648;23.332;2023-03-07T06:27:32;93760.22;;;6.82;69.00
65832;BME280;52593;42.648;23.332;2023-03-07T06:29:57;93764.63;;;6.90;68.75
65832;BME280;52593;42.648;23.332;2023-03-07T06:32:23;93758.13;;;6.92;68.09
65832;BME280;52593;42.648;23.332;2023-03-07T06:34:48;93759.88;;;7.00;68.05
65832;BME280;52593;42.648;23.332;2023-03-07T06:37:13;93768.78;;;7.07;67.41
65832;BME280;52593;42.648;23.332;2023-03-07T06:39:39;93756.31;;;7.08;67.76
65832;BME280;52593;42.648;23.332;2023-03-07T06:42:04;93749.06;;;7.17;67.54
65832;BME280;52593;42.648;23.332;2023-03-07T06:44:30;93767.16;;;7.36;67.01
65832;BME280;52593;42.648;23.332;2023-03-07T06:46:55;93774.41;;;7.27;65.70
65832;BME280;52593;42.648;23.332;2023-03-07T06:49:20;93778.41;;;7.08;66.56
65832;BME280;52593;42.648;23.332;2023-03-07T06:51:46;93780.09;;;7.24;65.98
65832;BME280;52593;42.648;23.332;2023-03-07T06:54:11;93765.31;;;7.22;65.92
65832;BME280;52593;42.648;23.332;2023-03-07T06:56:36;93763.56;;;7.14;67.12
65832;BME280;52593;42.648;23.332;2023-03-07T06:59:02;93777.25;;;7.26;66.89
65832;BME280;52593;42.648;23.332;2023-03-07T07:01:27;93771.66;;;7.36;66.78
65832;BME280;52593;42.648;23.332;2023-03-07T07:03:53;93774.16;;;7.52;66.28
65832;BME280;52593;42.648;23.332;2023-03-07T07:06:18;93775.44;;;7.41;66.18
65832;BME280;52593;42.648;23.332;2023-03-07T07:08:44;93765.16;;;7.38;65.99
65832;BME280;52593;42.648;23.332;2023-03-07T07:11:09;93767.91;;;7.60;64.84
65832;BME280;52593;42.648;23.332;2023-03-07T07:13:35;93774.59;;;7.71;64.21
65832;BME280;52593;42.648;23.332;2023-03-07T07:16:05;93763.84;;;7.79;63.45
65832;BME280;52593;42.648;23.332;2023-03-07T07:18:31;93777.22;;;7.85;64.11
65832;BME280;52593;42.648;23.332;2023-03-07T07:20:56;93779.19;;;7.92;64.55
65832;BME280;52593;42.648;23.332;2023-03-07T07:23:22;93756.47;;;7.96;63.71
65832;BME280;52593;42.648;23.332;2023-03-07T07:25:48;93758.69;;;7.92;63.61
65832;BME280;52593;42.648;23.332;2023-03-07T07:28:13;93767.13;;;7.96;64.17
65832;BME280;52593;42.648;23.332;2023-03-07T07:30:39;93774.03;;;7.90;64.31
65832;BME280;52593;42.648;23.332;2023-03-07T07:33:04;93773.97;;;8.05;64.07
65832;BME280;52593;42.648;23.332;2023-03-07T07:35:29;93774.28;;;7.95;63.60
65832;BME280;52593;42.648;23.332;2023-03-07T07:37:55;93775.84;;;7.90;65.25
65832;BME280;52593;42.648;23.332;2023-03-07T07:40:20;93777.41;;;7.99;64.77
65832;BME280;52593;42.648;23.332;2023-03-07T07:42:49;93782.50;;;8.15;63.73
65832;BME280;52593;42.648;23.332;2023-03-07T07:45:21;93776.25;;;8.23;63.14
65832;BME280;52593;42.648;23.332;2023-03-07T07:47:50;93775.28;;;8.09;63.49
65832;BME280;52593;42.648;23.332;2023-03-07T07:50:20;93779.25;;;8.35;63.11
65832;BME280;52593;42.648;23.332;2023-03-07T07:52:47;93773.78;;;8.43;62.12
65832;BME280;52593;42.648;23.332;2023-03-07T07:55:12;93778.50;;;8.41;61.55
65832;BME280;52593;42.648;23.332;2023-03-07T07:57:39;93786.91;;;8.60;60.61
65832;BME280;52593;42.648;23.332;2023-03-07T08:00:06;93785.44;;;8.57;61.41
65832;BME280;52593;42.648;23.332;2023-03-07T08:02:33;93780.19;;;8.64;60.14
65832;BME280;52593;42.648;23.332;2023-03-07T08:04:59;93793.34;;;8.65;59.61
65832;BME280;52593;42.648;23.332;2023-03-07T08:07:24;93784.53;;;8.50;59.57
65832;BME280;52593;42.648;23.332;2023-03-07T08:09:50;93784.31;;;8.30;60.30
65832;BME280;52593;42.648;23.332;2023-03-07T08:12:15;93784.00;;;8.39;60.78
65832;BME280;52593;42.648;23.332;2023-03-07T08:14:41;93776.16;;;8.53;59.92
65832;BME280;52593;42.648;23.332;2023-03-07T08:17:06;93769.44;;;8.57;59.75
65832;BME280;52593;42.648;23.332;2023-03-07T08:19:32;93773.81;;;8.65;58.54
65832;BME280;52593;42.648;23.332;2023-03-07T08:21:57;93773.56;;;8.81;59.22
65832;BME280;52593;42.648;23.332;2023-03-07T08:24:23;93777.22;;;9.02;58.90
65832;BME280;52593;42.648;23.332;2023-03-07T08:26:49;93778.41;;;9.21;58.12
65832;BME280;52593;42.648;23.332;2023-03-07T08:29:15;93775.38;;;9.31;57.60
65832;BME280;52593;42.648;23.332;2023-03-07T08:31:44;93781.97;;;9.63;56.18
65832;BME280;52593;42.648;23.332;2023-03-07T08:34:11;93762.38;;;9.49;55.13
65832;BME280;52593;42.648;23.332;2023-03-07T08:36:36;93767.50;;;9.51;56.04
65832;BME280;52593;42.648;23.332;2023-03-07T08:39:02;93764.03;;;9.50;55.80
65832;BME280;52593;42.648;23.332;2023-03-07T08:41:27;93780.72;;;9.59;56.16
65832;BME280;52593;42.648;23.332;2023-03-07T08:43:53;93773.50;;;9.53;56.99
65832;BME280;52593;42.648;23.332;2023-03-07T08:46:19;93771.09;;;9.64;56.50
65832;BME280;52593;42.648;23.332;2023-03-07T08:48:44;93767.00;;;9.69;56.56
65832;BME280;52593;42.648;23.332;2023-03-07T08:51:12;93772.56;;;9.74;56.05
65832;BME280;52593;42.648;23.332;2023-03-07T08:53:39;93769.91;;;9.74;55.46
65832;BME280;52593;42.648;23.332;2023-03-07T08:56:11;93772.91;;;9.57;54.58
65832;BME280;52593;42.648;23.332;2023-03-07T08:58:37;93769.38;;;9.50;54.20
65832;BME280;52593;42.648;23.332;2023-03-07T09:01:03;93777.34;;;9.43;55.63
65832;BME280;52593;42.648;23.332;2023-03-07T09:03:28;93768.16;;;9.53;55.93
65832;BME280;52593;42.648;23.332;2023-03-07T09:05:54;93765.09;;;9.56;55.29
65832;BME280;52593;42.648;23.332;2023-03-07T09:08:19;93767.78;;;9.62;55.49
65832;BME280;52593;42.648;23.332;2023-03-07T09:10:45;93764.13;;;9.70;54.82
65832;BME280;52593;42.648;23.332;2023-03-07T09:13:10;93769.00;;;9.60;54.24
65832;BME280;52593;42.648;23.332;2023-03-07T09:15:40;93762.22;;;9.57;54.06
65832;BME280;52593;42.648;23.332;2023-03-07T09:18:09;93760.59;;;9.63;54.35
65832;BME280;52593;42.648;23.332;2023-03-07T09:20:36;93755.31;;;9.76;53.79
65832;BME280;52593;42.648;23.332;2023-03-07T09:23:02;93754.59;;;9.89;53.06
65832;BME280;52593;42.648;23.332;2023-03-07T09:25:28;93758.28;;;9.88;52.18
65832;BME280;52593;42.648;23.332;2023-03-07T09:27:54;93758.50;;;9.93;51.82
65832;BME280;52593;42.648;23.332;2023-03-07T09:30:20;93759.34;;;9.94;51.68
65832;BME280;52593;42.648;23.332;2023-03-07T09:32:47;93738.38;;;10.04;52.54
65832;BME280;52593;42.648;23.332;2023-03-07T09:35:12;93741.91;;;10.18;50.52
65832;BME280;52593;42.648;23.332;2023-03-07T09:37:37;93741.59;;;10.41;51.38
65832;BME280;52593;42.648;23.332;2023-03-07T09:40:04;93749.25;;;10.58;49.99
65832;BME280;52593;42.648;23.332;2023-03-07T09:42:44;93737.53;;;10.65;49.74
65832;BME280;52593;42.648;23.332;2023-03-07T09:51:07;93728.72;;;10.98;48.88
65832;BME280;52593;42.648;23.332;2023-03-07T09:53:41;93725.00;;;11.26;47.60
65832;BME280;52593;42.648;23.332;2023-03-07T09:56:14;93716.72;;;11.41;47.93
65832;BME280;52593;42.648;23.332;2023-03-07T09:58:43;93716.72;;;11.34;46.36
65832;BME280;52593;42.648;23.332;2023-03-07T10:01:12;93704.16;;;11.41;46.81
65832;BME280;52593;42.648;23.332;2023-03-07T10:03:51;93701.06;;;11.45;45.97
65832;BME280;52593;42.648;23.332;2023-03-07T10:06:28;93696.31;;;11.53;45.10
65832;BME280;52593;42.648;23.332;2023-03-07T10:08:58;93697.09;;;11.67;46.72
65832;BME280;52593;42.648;23.332;2023-03-07T10:19:36;93688.75;;;12.02;44.77
65832;BME280;52593;42.648;23.332;2023-03-07T10:27:46;93677.88;;;12.61;42.72
65832;BME280;52593;42.648;23.332;2023-03-07T10:30:17;93682.56;;;12.91;40.88
65832;BME280;52593;42.648;23.332;2023-03-07T10:32:45;93678.91;;;13.10;40.84
65832;BME280;52593;42.648;23.332;2023-03-07T10:42:46;93659.28;;;13.35;39.21
65832;BME280;52593;42.648;23.332;2023-03-07T10:45:12;93659.09;;;13.30;40.49
65832;BME280;52593;42.648;23.332;2023-03-07T10:47:39;93645.41;;;13.75;39.41
65832;BME280;52593;42.648;23.332;2023-03-07T10:50:25;93629.69;;;14.21;38.44
65832;BME280;52593;42.648;23.332;2023-03-07T10:52:56;93635.41;;;14.43;37.41
65832;BME280;52593;42.648;23.332;2023-03-07T10:55:31;93623.25;;;14.52;36.29
65832;BME280;52593;42.648;23.332;2023-03-07T11:00:41;93623.56;;;14.44;35.71
65832;BME280;52593;42.648;23.332;2023-03-07T11:03:24;93614.41;;;14.33;36.37
65832;BME280;52593;42.648;23.332;2023-03-07T11:05:50;93605.03;;;14.24;36.36
65832;BME280;52593;42.648;23.332;2023-03-07T11:08:24;93606.84;;;14.84;36.14
65832;BME280;52593;42.648;23.332;2023-03-07T11:10:50;93592.19;;;14.26;34.88
65832;BME280;52593;42.648;23.332;2023-03-07T11:13:18;93590.31;;;14.69;35.46
65832;BME280;52593;42.648;23.332;2023-03-07T11:15:44;93580.03;;;14.89;35.04
65832;BME280;52593;42.648;23.332;2023-03-07T11:18:29;93577.19;;;14.60;34.77
65832;BME280;52593;42.648;23.332;2023-03-07T11:20:56;93569.34;;;15.06;34.29
65832;BME280;52593;42.648;23.332;2023-03-07T11:25:53;93558.34;;;15.20;33.34
65832;BME280;52593;42.648;23.332;2023-03-07T11:28:33;93555.97;;;15.11;33.15
65832;BME280;52593;42.648;23.332;2023-03-07T11:31:11;93556.66;;;15.42;33.06
65832;BME280;52593;42.648;23.332;2023-03-07T11:36:35;93558.97;;;14.44;32.76
65832;BME280;52593;42.648;23.332;2023-03-07T11:39:12;93564.69;;;14.24;33.63
65832;BME280;52593;42.648;23.332;2023-03-07T11:42:07;93554.13;;;14.22;34.24
65832;BME280;52593;42.648;23.332;2023-03-07T11:50:21;93550.41;;;15.01;32.93
65832;BME280;52593;42.648;23.332;2023-03-07T11:58:19;93532.66;;;14.46;33.84
65832;BME280;52593;42.648;23.332;2023-03-07T12:25:24;93524.03;;;14.91;31.55
65832;BME280;52593;42.648;23.332;2023-03-07T12:28:08;93535.91;;;14.24;32.77
65832;BME280;52593;42.648;23.332;2023-03-07T12:33:26;93535.16;;;14.05;32.72
65832;BME280;52593;42.648;23.332;2023-03-07T12:35:58;93531.63;;;14.59;32.82
65832;BME280;52593;42.648;23.332;2023-03-07T12:38:38;93526.50;;;14.69;33.09
65832;BME280;52593;42.648;23.332;2023-03-07T12:41:29;93510.25;;;14.10;32.92
65832;BME280;52593;42.648;23.332;2023-03-07T12:44:05;93516.69;;;14.75;31.71
65832;BME280;52593;42.648;23.332;2023-03-07T12:46:39;93506.09;;;15.09;31.66
65832;BME280;52593;42.648;23.332;2023-03-07T12:51:58;93518.94;;;15.30;30.57
65832;BME280;52593;42.648;23.332;2023-03-07T12:54:28;93521.47;;;15.49;30.33
65832;BME280;52593;42.648;23.332;2023-03-07T12:57:00;93517.59;;;15.57;30.58
65832;BME280;52593;42.648;23.332;2023-03-07T12:59:28;93509.69;;;15.67;30.52
65832;BME280;52593;42.648;23.332;2023-03-07T13:04:46;93509.59;;;15.62;28.85
65832;BME280;52593;42.648;23.332;2023-03-07T13:07:25;93505.78;;;15.86;29.15
65832;BME280;52593;42.648;23.332;2023-03-07T13:09:53;93517.88;;;15.84;28.58
65832;BME280;52593;42.648;23.332;2023-03-07T13:14:51;93521.25;;;15.91;29.34
65832;BME280;52593;42.648;23.332;2023-03-07T13:24:52;93503.28;;;16.14;28.83
65832;BME280;52593;42.648;23.332;2023-03-07T13:45:48;93493.66;;;18.24;28.07
65832;BME280;52593;42.648;23.332;2023-03-07T13:53:28;93492.88;;;18.28;27.18
65832;BME280;52593;42.648;23.332;2023-03-07T14:01:34;93489.03;;;17.92;26.92
65832;BME280;52593;42.648;23.332;2023-03-07T14:06:45;93493.47;;;16.75;29.00
65832;BME280;52593;42.648;23.332;2023-03-07T14:09:18;93481.91;;;18.13;28.15
65832;BME280;52593;42.648;23.332;2023-03-07T14:11:54;93478.50;;;18.55;26.88
65832;BME280;52593;42.648;23.332;2023-03-07T14:20:14;93471.00;;;18.67;27.11
65832;BME280;52593;42.648;23.332;2023-03-07T14:25:30;93486.47;;;17.36;28.15
65832;BME280;52593;42.648;23.332;2023-03-07T14:27:58;93509.09;;;16.56;29.58
65832;BME280;52593;42.648;23.332;2023-03-07T14:30:29;93506.25;;;16.63;29.45
65832;BME280;52593;42.648;23.332;2023-03-07T14:32:55;93506.31;;;17.02;28.95
65832;BME280;52593;42.648;23.332;2023-03-07T14:35:39;93514.50;;;16.56;29.45
65832;BME280;52593;42.648;23.332;2023-03-07T14:38:24;93506.31;;;16.17;29.84
65832;BME280;52593;42.648;23.332;2023-03-07T14:51:35;93505.94;;;14.09;32.43
65832;BME280;52593;42.648;23.332;2023-03-07T14:54:06;93496.59;;;13.69;33.43
65832;BME280;52593;42.648;23.332;2023-03-07T14:56:36;93500.75;;;12.98;34.34
65832;BME280;52593;42.648;23.332;2023-03-07T14:59:02;93507.16;;;12.97;34.93
65832;BME280;52593;42.648;23.332;2023-03-07T15:01:31;93510.25;;;12.82;35.45
65832;BME280;52593;42.648;23.332;2023-03-07T15:03:59;93508.00;;;12.97;35.53
65832;BME280;52593;42.648;23.332;2023-03-07T15:06:26;93503.59;;;13.03;35.34
65832;BME280;52593;42.648;23.332;2023-03-07T15:08:55;93491.91;;;12.97;35.56
65832;BME280;52593;42.648;23.332;2023-03-07T15:13:52;93510.50;;;12.55;36.43
65832;BME280;52593;42.648;23.332;2023-03-07T15:16:45;93505.97;;;12.56;36.44
65832;BME280;52593;42.648;23.332;2023-03-07T15:21:47;93502.97;;;12.45;36.51
65832;BME280;52593;42.648;23.332;2023-03-07T15:24:18;93509.31;;;12.51;36.90
65832;BME280;52593;42.648;23.332;2023-03-07T15:26:49;93498.41;;;12.46;36.84
65832;BME280;52593;42.648;23.332;2023-03-07T15:29:15;93502.16;;;12.20;37.46
65832;BME280;52593;42.648;23.332;2023-03-07T15:31:56;93504.91;;;12.13;37.51
65832;BME280;52593;42.648;23.332;2023-03-07T15:34:25;93509.47;;;12.06;38.16